createdAt,value
2023-03-26T00:02:31.042Z,100805.31
2023-03-26T00:05:01.259Z,100800.91
2023-03-26T00:07:30.691Z,100807.94
2023-03-26T00:09:59.767Z,100801.56
2023-03-26T00:12:26.271Z,100805.69
2023-03-26T00:14:56.288Z,100805.56
2023-03-26T00:17:25.739Z,100802.09
2023-03-26T00:20:05.124Z,100803.88
2023-03-26T00:22:31.462Z,100803.88
2023-03-26T00:25:01.375Z,100797.88
2023-03-26T00:27:30.979Z,100799.78
2023-03-26T00:29:57.613Z,100792.78
2023-03-26T00:32:31.986Z,100794.56
2023-03-26T00:34:58.393Z,100794.56
2023-03-26T00:37:38.013Z,100794.56
2023-03-26T00:40:10.986Z,100789.50
2023-03-26T00:42:40.222Z,100777.41
2023-03-26T00:45:10.569Z,100776.88
2023-03-26T00:47:39.417Z,100768.66
2023-03-26T00:50:07.647Z,100767.03
2023-03-26T00:52:38.398Z,100769.25
2023-03-26T00:55:05.115Z,100768.41
2023-03-26T00:57:35.945Z,100764.03
2023-03-26T01:03:04.630Z,100764.19
2023-03-26T01:05:34.262Z,100759.63
2023-03-26T01:08:56.292Z,100763.88
2023-03-26T01:11:29.665Z,100756.03
2023-03-26T01:14:00.948Z,100757.16
2023-03-26T01:16:52.486Z,100753.44
2023-03-26T01:19:33.810Z,100743.28
2023-03-26T01:22:00.655Z,100737.91
2023-03-26T01:24:27.124Z,100736.44
2023-03-26T01:27:18.417Z,100724.31
2023-03-26T01:32:53.690Z,100708.66
2023-03-26T01:35:59.195Z,100714.84
2023-03-26T01:41:57.316Z,100705.50
2023-03-26T01:44:53.732Z,100711.25
2023-03-26T01:47:21.511Z,100704.78
2023-03-26T01:49:56.758Z,100696.81
2023-03-26T01:52:30.298Z,100701.88
2023-03-26T01:55:00.345Z,100690.75
2023-03-26T01:57:41.044Z,100690.75
2023-03-26T02:00:33.795Z,100679.47
2023-03-26T02:03:23.987Z,100677.00
2023-03-26T02:06:19.272Z,100677.84
2023-03-26T02:11:43.063Z,100655.16
2023-03-26T02:14:10.958Z,100657.09
2023-03-26T02:16:37.454Z,100653.81
2023-03-26T02:19:15.300Z,100654.78
2023-03-26T02:21:53.822Z,100651.34
2023-03-26T02:24:20.353Z,100654.25
2023-03-26T02:26:50.900Z,100649.84
2023-03-26T02:29:21.265Z,100645.59
2023-03-26T02:31:55.910Z,100637.09
2023-03-26T02:34:22.375Z,100636.28
2023-03-26T02:36:48.906Z,100646.28
2023-03-26T02:39:19.492Z,100642.69
2023-03-26T02:41:45.871Z,100633.59
2023-03-26T02:44:12.282Z,100626.06
2023-03-26T02:46:44.944Z,100625.75
2023-03-26T02:49:14.832Z,100631.66
2023-03-26T02:51:43.942Z,100614.84
2023-03-26T02:54:13.319Z,100622.22
2023-03-26T02:56:39.755Z,100620.97
2023-03-26T02:59:10.841Z,100620.13
2023-03-26T03:01:42.636Z,100620.00
2023-03-26T03:04:13.753Z,100625.44
2023-03-26T03:06:40.409Z,100616.44
2023-03-26T03:09:15.346Z,100613.84
2023-03-26T03:11:44.718Z,100607.34
2023-03-26T03:14:11.081Z,100606.06
2023-03-26T03:16:41.169Z,100610.47
2023-03-26T03:19:07.673Z,100608.53
2023-03-26T03:21:34.174Z,100603.66
2023-03-26T03:24:11.582Z,100602.53
2023-03-26T03:26:45.460Z,100597.81
2023-03-26T03:29:14.677Z,100589.16
2023-03-26T03:31:44.037Z,100592.59
2023-03-26T03:34:16.591Z,100589.00
2023-03-26T03:36:42.989Z,100584.44
2023-03-26T03:39:21.067Z,100586.88
2023-03-26T03:41:47.504Z,100580.03
2023-03-26T03:44:16.689Z,100586.22
2023-03-26T03:46:43.130Z,100590.50
2023-03-26T03:49:09.536Z,100587.56
2023-03-26T03:51:44.801Z,100577.09
2023-03-26T03:54:11.236Z,100583.97
2023-03-26T03:56:41.862Z,100582.19
2023-03-26T03:59:11.646Z,100587.72
2023-03-26T04:01:38.303Z,100585.91
2023-03-26T04:04:07.766Z,100576.94
2023-03-26T04:06:37.422Z,100577.78
2023-03-26T04:09:11.627Z,100574.88
2023-03-26T04:11:37.960Z,100562.75
2023-03-26T04:14:04.359Z,100561.66
2023-03-26T04:16:33.805Z,100560.50
2023-03-26T04:19:03.970Z,100560.34
2023-03-26T04:21:38.205Z,100550.56
2023-03-26T04:24:05.267Z,100553.03
2023-03-26T04:26:31.744Z,100553.53
2023-03-26T04:29:11.836Z,100548.16
2023-03-26T04:31:44.684Z,100541.25
2023-03-26T04:34:26.670Z,100542.94
2023-03-26T04:36:56.773Z,100539.31
2023-03-26T04:39:29.358Z,100539.47
2023-03-26T04:42:00.486Z,100527.06
2023-03-26T04:44:31.433Z,100520.88
2023-03-26T04:46:57.889Z,100526.91
2023-03-26T04:49:24.274Z,100517.41
2023-03-26T04:52:00.085Z,100512.34
2023-03-26T04:54:26.556Z,100504.66
2023-03-26T04:56:59.019Z,100504.66
2023-03-26T04:59:37.111Z,100499.28
2023-03-26T05:02:08.376Z,100498.63
2023-03-26T05:07:24.228Z,100484.72
2023-03-26T05:09:51.002Z,100483.75
2023-03-26T05:12:17.745Z,100477.56
2023-03-26T05:14:47.905Z,100483.59
2023-03-26T05:17:18.775Z,100477.88
2023-03-26T05:25:15.524Z,100471.00
2023-03-26T05:27:46.268Z,100466.28
2023-03-26T05:30:35.305Z,100468.06
2023-03-26T05:33:05.280Z,100462.50
2023-03-26T05:35:32.168Z,100455.66
2023-03-26T05:38:08.269Z,100456.66
2023-03-26T05:40:34.598Z,100451.41
2023-03-26T05:43:04.671Z,100454.81
2023-03-26T05:45:30.995Z,100450.09
2023-03-26T05:47:57.424Z,100447.50
2023-03-26T05:50:29.901Z,100443.25
2023-03-26T05:52:56.271Z,100448.63
2023-03-26T05:55:22.623Z,100444.22
2023-03-26T05:57:51.338Z,100440.94
2023-03-26T06:00:20.669Z,100435.06
2023-03-26T06:02:48.238Z,100432.59
2023-03-26T06:05:17.514Z,100435.88
2023-03-26T06:07:43.889Z,100423.25
2023-03-26T06:10:10.749Z,100422.47
2023-03-26T06:12:47.831Z,100419.38
2023-03-26T06:15:14.234Z,100416.91
2023-03-26T06:17:44.368Z,100417.75
2023-03-26T06:20:14.210Z,100411.84
2023-03-26T06:22:44.357Z,100410.03
2023-03-26T06:25:13.284Z,100406.78
2023-03-26T06:27:39.653Z,100402.69
2023-03-26T06:30:12.056Z,100397.59
2023-03-26T06:32:38.478Z,100401.88
2023-03-26T06:35:05.361Z,100402.06
2023-03-26T06:37:36.322Z,100394.38
2023-03-26T06:40:03.570Z,100398.81
2023-03-26T06:43:06.859Z,100396.31
2023-03-26T06:45:19.902Z,100390.31
2023-03-26T06:47:49.205Z,100386.53
2023-03-26T06:50:16.077Z,100388.66
2023-03-26T06:52:42.668Z,100388.34
2023-03-26T06:55:12.308Z,100386.69
2023-03-26T06:57:38.670Z,100387.53
2023-03-26T07:00:14.808Z,100390.47
2023-03-26T07:02:41.213Z,100390.81
2023-03-26T07:05:17.187Z,100396.03
2023-03-26T07:07:46.389Z,100391.13
2023-03-26T07:10:14.753Z,100391.94
2023-03-26T07:12:42.383Z,100398.31
2023-03-26T07:15:10.536Z,100394.72
2023-03-26T07:17:39.645Z,100389.50
2023-03-26T07:20:08.287Z,100389.31
2023-03-26T07:22:35.784Z,100394.72
2023-03-26T07:25:03.226Z,100389.00
2023-03-26T07:27:35.545Z,100389.81
2023-03-26T07:30:14.530Z,100386.69
2023-03-26T07:33:01.302Z,100383.44
2023-03-26T07:35:53.557Z,100383.75
2023-03-26T07:38:41.499Z,100386.03
2023-03-26T07:41:52.104Z,100382.78
2023-03-26T07:44:39.973Z,100379.69
2023-03-26T07:47:25.697Z,100380.81
2023-03-26T07:49:56.641Z,100376.25
2023-03-26T07:52:26.944Z,100377.53
2023-03-26T07:55:00.575Z,100383.09
2023-03-26T07:57:48.456Z,100376.09
2023-03-26T08:00:37.543Z,100377.88
2023-03-26T08:03:31.404Z,100376.59
2023-03-26T08:06:17.952Z,100374.31
2023-03-26T08:08:56.671Z,100360.88
2023-03-26T08:11:55.624Z,100375.25
2023-03-26T08:14:43.774Z,100367.25
2023-03-26T08:17:33.185Z,100366.13
2023-03-26T08:20:15.300Z,100374.47
2023-03-26T08:22:43.245Z,100371.03
2023-03-26T08:26:02.199Z,100372.16
2023-03-26T08:29:15.911Z,100372.31
2023-03-26T08:31:48.506Z,100369.53
2023-03-26T08:34:17.597Z,100369.88
2023-03-26T08:36:48.107Z,100359.41
2023-03-26T08:39:14.501Z,100369.69
2023-03-26T08:42:17.893Z,100365.47
2023-03-26T08:44:48.917Z,100370.34
2023-03-26T08:48:01.896Z,100365.28
2023-03-26T08:50:52.118Z,100368.72
2023-03-26T08:57:02.622Z,100372.97
2023-03-26T08:59:51.013Z,100374.28
2023-03-26T09:02:44.882Z,100366.44
2023-03-26T09:05:49.407Z,100370.69
2023-03-26T09:08:30.412Z,100369.69
2023-03-26T09:11:34.006Z,100371.31
2023-03-26T09:14:33.338Z,100376.66
2023-03-26T09:17:55.922Z,100374.03
2023-03-26T09:20:57.185Z,100377.63
2023-03-26T09:23:58.744Z,100379.88
2023-03-26T09:26:47.700Z,100379.91
2023-03-26T09:29:41.754Z,100381.56
2023-03-26T09:32:23.457Z,100374.19
2023-03-26T09:35:08.471Z,100378.72
2023-03-26T09:38:00.268Z,100377.94
2023-03-26T09:40:41.527Z,100381.88
2023-03-26T09:43:29.538Z,100384.97
2023-03-26T09:46:33.552Z,100377.94
2023-03-26T09:49:29.914Z,100379.91
2023-03-26T09:52:22.291Z,100382.34
2023-03-26T09:55:28.958Z,100387.91
2023-03-26T09:58:19.460Z,100384.81
2023-03-26T10:00:52.506Z,100387.72
2023-03-26T10:03:31.811Z,100388.34
2023-03-26T10:06:32.673Z,100398.34
2023-03-26T10:09:13.688Z,100393.25
2023-03-26T10:12:27.901Z,100392.91
2023-03-26T10:15:31.766Z,100398.50
2023-03-26T10:18:32.201Z,100404.19
2023-03-26T10:21:12.227Z,100395.41
2023-03-26T10:23:53.394Z,100398.53
2023-03-26T10:27:10.376Z,100405.22
2023-03-26T10:29:57.518Z,100411.09
2023-03-26T10:33:01.458Z,100413.06
2023-03-26T10:36:00.616Z,100418.94
2023-03-26T10:39:05.596Z,100411.88
2023-03-26T10:42:07.113Z,100412.06
2023-03-26T10:45:18.544Z,100419.06
2023-03-26T10:48:27.038Z,100416.34
2023-03-26T10:51:21.362Z,100420.09
2023-03-26T10:54:12.651Z,100421.84
2023-03-26T10:56:50.967Z,100420.22
2023-03-26T10:59:27.076Z,100425.56
2023-03-26T11:02:29.177Z,100434.19
2023-03-26T11:05:14.234Z,100436.16
2023-03-26T11:08:09.156Z,100439.63
2023-03-26T11:10:53.462Z,100439.47
2023-03-26T11:14:00.593Z,100432.94
2023-03-26T11:16:47.099Z,100436.56
2023-03-26T11:19:44.669Z,100434.28
2023-03-26T11:22:46.404Z,100444.41
2023-03-26T11:25:41.246Z,100446.91
2023-03-26T11:28:32.462Z,100447.59
2023-03-26T11:31:12.789Z,100449.91
2023-03-26T11:33:46.592Z,100450.41
2023-03-26T11:36:27.430Z,100451.06
2023-03-26T11:38:57.985Z,100452.53
2023-03-26T11:41:27.516Z,100459.00
2023-03-26T11:44:37.189Z,100469.25
2023-03-26T11:47:13.694Z,100466.91
2023-03-26T11:49:40.499Z,100462.97
2023-03-26T11:52:10.842Z,100464.09
2023-03-26T11:54:46.245Z,100466.38
2023-03-26T11:57:49.738Z,100462.47
2023-03-26T12:00:21.080Z,100466.59
2023-03-26T12:02:48.906Z,100467.78
2023-03-26T12:05:39.029Z,100477.41
2023-03-26T12:08:23.156Z,100482.16
2023-03-26T12:11:26.402Z,100478.47
2023-03-26T12:13:59.442Z,100478.16
2023-03-26T12:16:47.759Z,100477.38
2023-03-26T12:19:20.967Z,100480.16
2023-03-26T12:21:52.616Z,100478.25
2023-03-26T12:24:34.712Z,100486.59
2023-03-26T12:27:28.180Z,100490.50
2023-03-26T12:30:23.918Z,100487.91
2023-03-26T12:35:38.275Z,100489.91
2023-03-26T12:38:33.087Z,100495.16
2023-03-26T12:44:50.514Z,100497.41
2023-03-26T12:44:55.789Z,100500.03
2023-03-26T12:47:58.926Z,100507.41
2023-03-26T12:49:37.580Z,100503.66
2023-03-26T12:52:24.688Z,100508.41
2023-03-26T12:55:12.050Z,100507.41
2023-03-26T12:57:58.712Z,100505.47
2023-03-26T13:01:03.055Z,100506.28
2023-03-26T13:04:08.379Z,100516.25
2023-03-26T13:07:00.353Z,100517.72
2023-03-26T13:09:56.188Z,100513.13
2023-03-26T13:12:41.083Z,100522.94
2023-03-26T13:15:24.708Z,100519.84
2023-03-26T13:17:56.744Z,100522.97
2023-03-26T13:20:47.821Z,100531.28
2023-03-26T13:23:39.786Z,100528.50
2023-03-26T13:26:15.879Z,100530.81
2023-03-26T13:29:04.587Z,100542.09
2023-03-26T13:31:38.230Z,100552.75
2023-03-26T13:34:46.051Z,100547.19
2023-03-26T13:37:16.258Z,100543.75
2023-03-26T13:40:25.456Z,100541.31
2023-03-26T13:43:06.769Z,100545.38
2023-03-26T13:46:00.991Z,100548.00
2023-03-26T13:48:43.652Z,100540.47
2023-03-26T13:51:13.792Z,100550.13
2023-03-26T13:53:51.781Z,100558.16
2023-03-26T13:56:38.713Z,100550.47
2023-03-26T13:59:29.899Z,100562.25
2023-03-26T14:02:14.585Z,100560.44
2023-03-26T14:07:34.581Z,100568.47
2023-03-26T14:10:03.580Z,100572.91
2023-03-26T14:12:57.500Z,100577.63
2023-03-26T14:15:31.178Z,100580.72
2023-03-26T14:18:18.833Z,100590.19
2023-03-26T14:21:00.999Z,100588.22
2023-03-26T14:23:50.022Z,100596.72
2023-03-26T14:26:45.252Z,100595.88
2023-03-26T14:29:32.238Z,100596.34
2023-03-26T14:32:11.814Z,100598.81
2023-03-26T14:35:28.934Z,100613.38
2023-03-26T14:38:37.080Z,100612.34
2023-03-26T14:41:23.160Z,100617.56
2023-03-26T14:44:13.544Z,100622.97
2023-03-26T14:47:22.655Z,100624.13
2023-03-26T14:50:27.832Z,100631.59
2023-03-26T14:53:01.435Z,100651.75
2023-03-26T14:55:54.379Z,100641.06
2023-03-26T14:58:48.775Z,100654.00
2023-03-26T15:01:24.456Z,100658.41
2023-03-26T15:04:15.887Z,100666.88
2023-03-26T15:06:48.759Z,100671.03
2023-03-26T15:09:41.020Z,100677.47
2023-03-26T15:12:36.652Z,100670.22
2023-03-26T15:15:38.124Z,100682.78
2023-03-26T15:18:46.231Z,100676.97
2023-03-26T15:21:43.629Z,100681.28
2023-03-26T15:24:17.279Z,100685.75
2023-03-26T15:27:17.686Z,100695.16
2023-03-26T15:30:05.923Z,100680.78
2023-03-26T15:33:03.766Z,100698.81
2023-03-26T15:38:57.312Z,100704.78
2023-03-26T15:41:41.864Z,100706.16
2023-03-26T15:44:47.243Z,100722.28
2023-03-26T15:47:38.528Z,100726.09
2023-03-26T15:50:29.290Z,100735.19
2023-03-26T15:53:21.183Z,100745.97
2023-03-26T15:56:02.879Z,100753.72
2023-03-26T15:58:57.234Z,100750.09
2023-03-26T16:01:36.864Z,100765.09
2023-03-26T16:04:17.219Z,100769.94
2023-03-26T16:07:26.260Z,100768.81
2023-03-26T16:10:01.523Z,100784.09
2023-03-26T16:12:35.729Z,100787.16
2023-03-26T16:15:25.751Z,100793.88
2023-03-26T16:18:14.393Z,100794.59
2023-03-26T16:21:31.274Z,100795.56
2023-03-26T16:24:03.641Z,100800.09
2023-03-26T16:27:12.677Z,100812.22
2023-03-26T16:30:00.638Z,100824.88
2023-03-26T16:32:48.005Z,100812.91
2023-03-26T16:35:24.002Z,100812.13
2023-03-26T16:38:10.517Z,100847.72
2023-03-26T16:41:17.242Z,100837.44
2023-03-26T16:44:19.362Z,100862.59
2023-03-26T16:47:10.878Z,100854.50
2023-03-26T16:50:14.316Z,100859.88
2023-03-26T16:53:08.010Z,100873.84
2023-03-26T16:56:02.647Z,100874.28
2023-03-26T16:58:50.713Z,100886.53
2023-03-26T17:01:32.778Z,100903.56
2023-03-26T17:04:24.577Z,100905.25
2023-03-26T17:07:08.898Z,100912.66
2023-03-26T17:10:04.488Z,100904.56
2023-03-26T17:13:11.924Z,100919.00
2023-03-26T17:16:01.938Z,100929.16
2023-03-26T17:18:51.805Z,100934.22
2023-03-26T17:21:45.938Z,100938.19
2023-03-26T17:24:33.277Z,100943.03
2023-03-26T17:27:13.771Z,100946.44
2023-03-26T17:30:22.015Z,100968.97
2023-03-26T17:32:57.704Z,100960.84
2023-03-26T17:35:53.829Z,100968.53
2023-03-26T17:38:26.848Z,100973.19
2023-03-26T17:41:02.348Z,100981.41
2023-03-26T17:43:52.592Z,100989.38
2023-03-26T17:46:39.458Z,100985.50
2023-03-26T17:49:12.058Z,100999.78
2023-03-26T17:52:07.433Z,101001.69
2023-03-26T17:54:43.659Z,101010.88
2023-03-26T17:57:15.726Z,101013.88
2023-03-26T17:59:47.507Z,101008.22
2023-03-26T18:02:28.012Z,101016.03
2023-03-26T18:04:58.034Z,101018.09
2023-03-26T18:07:58.809Z,101029.88
2023-03-26T18:11:02.968Z,101041.06
2023-03-26T18:13:48.610Z,101045.13
2023-03-26T18:16:24.275Z,101049.78
2023-03-26T18:19:18.455Z,101058.94
2023-03-26T18:21:55.477Z,101057.97
2023-03-26T18:24:40.509Z,101053.72
2023-03-26T18:27:22.749Z,101063.88
2023-03-26T18:30:14.120Z,101075.00
2023-03-26T18:33:14.258Z,101076.66
2023-03-26T18:35:56.130Z,101083.50
2023-03-26T18:38:35.623Z,101092.16
2023-03-26T18:41:10.574Z,101104.34
2023-03-26T18:43:44.494Z,101110.53
2023-03-26T18:46:14.564Z,101123.41
2023-03-26T18:48:48.660Z,101118.34
2023-03-26T18:51:25.627Z,101126.41
2023-03-26T18:54:04.615Z,101136.38
2023-03-26T18:56:35.927Z,101152.63
2023-03-26T18:59:29.025Z,101153.91
2023-03-26T19:02:00.289Z,101152.78
2023-03-26T19:04:33.474Z,101165.44
2023-03-26T19:07:04.399Z,101171.88
2023-03-26T19:09:33.785Z,101171.53
2023-03-26T19:12:14.344Z,101171.78
2023-03-26T19:15:09.980Z,101172.69
2023-03-26T19:18:09.714Z,101181.22
2023-03-26T19:20:39.909Z,101189.75
2023-03-26T19:23:10.957Z,101187.03
2023-03-26T19:25:43.149Z,101188.66
2023-03-26T19:28:34.142Z,101197.69
2023-03-26T19:31:09.281Z,101210.09
2023-03-26T19:33:41.790Z,101207.97
2023-03-26T19:36:34.042Z,101218.88
2023-03-26T19:39:11.652Z,101220.16
2023-03-26T19:41:44.258Z,101234.13
2023-03-26T19:44:27.354Z,101235.22
2023-03-26T19:47:18.731Z,101244.91
2023-03-26T19:49:56.891Z,101246.91
2023-03-26T19:52:30.224Z,101245.38
2023-03-26T19:55:07.219Z,101258.75
2023-03-26T19:57:40.767Z,101246.56
2023-03-26T20:00:16.047Z,101257.06
2023-03-26T20:02:46.512Z,101270.09
2023-03-26T20:05:36.252Z,101268.31
2023-03-26T20:08:12.905Z,101262.41
2023-03-26T20:10:42.655Z,101275.41
2023-03-26T20:13:31.112Z,101277.09
2023-03-26T20:16:31.764Z,101283.31
2023-03-26T20:19:02.658Z,101285.00
2023-03-26T20:21:37.481Z,101290.31
2023-03-26T20:24:17.465Z,101297.28
2023-03-26T20:26:45.958Z,101306.72
2023-03-26T20:29:21.952Z,101312.78
2023-03-26T20:31:51.440Z,101308.41
2023-03-26T20:34:23.310Z,101319.97
2023-03-26T20:37:01.299Z,101314.78
2023-03-26T20:39:28.221Z,101321.75
2023-03-26T20:44:41.498Z,101327.41
2023-03-26T20:47:11.537Z,101338.03
2023-03-26T20:49:41.422Z,101333.06
2023-03-26T20:52:10.278Z,101344.53
2023-03-26T20:54:36.776Z,101350.91
2023-03-26T20:57:09.502Z,101355.53
2023-03-26T20:59:35.974Z,101362.47
2023-03-26T21:02:02.596Z,101365.41
2023-03-26T21:04:33.888Z,101373.56
2023-03-26T21:07:11.077Z,101366.00
2023-03-26T21:09:47.659Z,101369.63
2023-03-26T21:12:44.966Z,101369.75
2023-03-26T21:15:22.902Z,101376.13
2023-03-26T21:17:52.068Z,101376.56
2023-03-26T21:20:31.105Z,101376.88
2023-03-26T21:23:21.616Z,101382.41
2023-03-26T21:26:17.850Z,101388.03
2023-03-26T21:28:51.557Z,101390.03
2023-03-26T21:31:24.916Z,101393.69
2023-03-26T21:33:54.347Z,101391.53
2023-03-26T21:36:21.196Z,101393.50
2023-03-26T21:38:57.213Z,101393.81
2023-03-26T21:41:23.563Z,101405.16
2023-03-26T21:43:56.442Z,101409.63
2023-03-26T21:46:23.178Z,101419.41
2023-03-26T21:48:49.898Z,101427.28
2023-03-26T21:51:20.373Z,101435.94
2023-03-26T21:53:49.937Z,101432.28
2023-03-26T21:56:51.240Z,101434.75
2023-03-26T21:59:54.353Z,101442.34
2023-03-26T22:02:54.485Z,101447.25
2023-03-26T22:05:48.833Z,101445.13
2023-03-26T22:08:29.742Z,101464.56
2023-03-26T22:10:58.886Z,101463.06
2023-03-26T22:13:25.463Z,101472.22
2023-03-26T22:15:52.153Z,101473.53
2023-03-26T22:18:21.749Z,101477.38
2023-03-26T22:20:51.036Z,101465.81
2023-03-26T22:23:23.138Z,101486.28
2023-03-26T22:25:49.561Z,101486.06
2023-03-26T22:28:21.474Z,101493.03
2023-03-26T22:30:50.890Z,101488.88
2023-03-26T22:33:20.927Z,101486.50
2023-03-26T22:35:54.744Z,101489.41
2023-03-26T22:38:23.509Z,101494.94
2023-03-26T22:40:58.050Z,101503.06
2023-03-26T22:43:30.593Z,101513.78
2023-03-26T22:45:56.980Z,101509.03
2023-03-26T22:48:24.545Z,101517.84
2023-03-26T22:51:09.015Z,101517.34
2023-03-26T22:53:36.510Z,101520.16
2023-03-26T22:56:04.134Z,101521.31
2023-03-26T22:58:30.944Z,101532.75
2023-03-26T23:01:26.235Z,101535.47
2023-03-26T23:04:01.264Z,101541.56
2023-03-26T23:06:31.516Z,101535.56
2023-03-26T23:09:00.744Z,101543.16
2023-03-26T23:11:32.913Z,101555.81
2023-03-26T23:14:01.976Z,101551.31
2023-03-26T23:16:29.483Z,101554.56
2023-03-26T23:18:56.087Z,101558.72
2023-03-26T23:21:22.526Z,101562.88
2023-03-26T23:23:52.825Z,101566.19
2023-03-26T23:26:22.481Z,101571.78
2023-03-26T23:28:54.154Z,101569.69
2023-03-26T23:31:25.337Z,101583.22
2023-03-26T23:36:40.943Z,101583.84
2023-03-26T23:39:08.299Z,101593.28
2023-03-26T23:41:35.333Z,101602.03
2023-03-26T23:44:05.391Z,101602.16
2023-03-26T23:46:34.653Z,101609.00
2023-03-26T23:49:07.338Z,101604.53
2023-03-26T23:51:36.889Z,101618.97
2023-03-26T23:54:16.269Z,101626.66
2023-03-26T23:56:42.613Z,101623.03
2023-03-26T23:59:14.873Z,101628.03
